sensor_id;sensor_type;location;lat;lon;timestamp;temperature;humidity
52895;DHT22;38759;53.396;6.722;2023-08-20T00:02:25;15.70;99.90
52895;DHT22;38759;53.396;6.722;2023-08-20T00:04:53;15.70;99.90
52895;DHT22;38759;53.396;6.722;2023-08-20T00:07:21;15.80;99.90
52895;DHT22;38759;53.396;6.722;2023-08-20T00:09:47;15.80;99.90
52895;DHT22;38759;53.396;6.722;2023-08-20T00:12:12;15.90;99.90
52895;DHT22;38759;53.396;6.722;2023-08-20T00:14:57;15.90;99.90
52895;DHT22;38759;53.396;6.722;2023-08-20T00:17:34;15.90;99.90
52895;DHT22;38759;53.396;6.722;2023-08-20T00:20:00;16.00;99.90
52895;DHT22;38759;53.396;6.722;2023-08-20T00:22:27;16.00;99.90
52895;DHT22;38759;53.396;6.722;2023-08-20T00:24:53;16.00;99.90
52895;DHT22;38759;53.396;6.722;2023-08-20T00:27:20;16.00;99.90
52895;DHT22;38759;53.396;6.722;2023-08-20T00:29:46;16.00;99.90
52895;DHT22;38759;53.396;6.722;2023-08-20T00:32:12;16.00;99.90
52895;DHT22;38759;53.396;6.722;2023-08-20T00:34:37;15.90;99.90
52895;DHT22;38759;53.396;6.722;2023-08-20T00:37:03;15.80;99.90
52895;DHT22;38759;53.396;6.722;2023-08-20T00:39:29;15.80;99.90
52895;DHT22;38759;53.396;6.722;2023-08-20T00:41:55;15.70;99.90
52895;DHT22;38759;53.396;6.722;2023-08-20T00:44:21;15.60;99.90
52895;DHT22;38759;53.396;6.722;2023-08-20T00:46:46;15.60;99.90
52895;DHT22;38759;53.396;6.722;2023-08-20T00:49:13;15.50;99.90
52895;DHT22;38759;53.396;6.722;2023-08-20T00:51:38;15.50;99.90
52895;DHT22;38759;53.396;6.722;2023-08-20T00:54:05;15.60;99.90
52895;DHT22;38759;53.396;6.722;2023-08-20T00:56:30;15.50;99.90
52895;DHT22;38759;53.396;6.722;2023-08-20T00:58:56;15.50;99.90
52895;DHT22;38759;53.396;6.722;2023-08-20T01:01:22;15.30;99.90
52895;DHT22;38759;53.396;6.722;2023-08-20T01:03:48;15.20;99.90
52895;DHT22;38759;53.396;6.722;2023-08-20T01:06:37;15.20;99.90
52895;DHT22;38759;53.396;6.722;2023-08-20T01:11:57;15.30;99.90
52895;DHT22;38759;53.396;6.722;2023-08-20T01:14:24;15.30;99.90
52895;DHT22;38759;53.396;6.722;2023-08-20T01:16:50;15.30;99.90
52895;DHT22;38759;53.396;6.722;2023-08-20T01:19:21;15.30;99.90
52895;DHT22;38759;53.396;6.722;2023-08-20T01:24:58;15.30;99.90
52895;DHT22;38759;53.396;6.722;2023-08-20T01:29:54;15.40;99.90
52895;DHT22;38759;53.396;6.722;2023-08-20T01:32:20;15.30;99.90
52895;DHT22;38759;53.396;6.722;2023-08-20T01:34:47;15.40;99.90
52895;DHT22;38759;53.396;6.722;2023-08-20T01:37:13;15.40;99.90
52895;DHT22;38759;53.396;6.722;2023-08-20T01:39:39;15.40;99.90
52895;DHT22;38759;53.396;6.722;2023-08-20T01:42:05;15.40;99.90
52895;DHT22;38759;53.396;6.722;2023-08-20T01:44:31;15.40;99.90
52895;DHT22;38759;53.396;6.722;2023-08-20T01:46:57;15.40;99.90
52895;DHT22;38759;53.396;6.722;2023-08-20T01:49:23;15.40;99.90
52895;DHT22;38759;53.396;6.722;2023-08-20T01:51:49;15.40;99.90
52895;DHT22;38759;53.396;6.722;2023-08-20T01:54:14;15.40;99.90
52895;DHT22;38759;53.396;6.722;2023-08-20T01:56:40;15.30;99.90
52895;DHT22;38759;53.396;6.722;2023-08-20T01:59:06;15.30;99.90
52895;DHT22;38759;53.396;6.722;2023-08-20T02:01:31;15.20;99.90
52895;DHT22;38759;53.396;6.722;2023-08-20T02:03:57;15.10;99.90
52895;DHT22;38759;53.396;6.722;2023-08-20T02:06:23;15.00;99.90
52895;DHT22;38759;53.396;6.722;2023-08-20T02:08:48;14.90;99.90
52895;DHT22;38759;53.396;6.722;2023-08-20T02:11:14;14.90;99.90
52895;DHT22;38759;53.396;6.722;2023-08-20T02:13:40;14.90;99.90
52895;DHT22;38759;53.396;6.722;2023-08-20T02:16:05;14.90;99.90
52895;DHT22;38759;53.396;6.722;2023-08-20T02:18:32;14.90;99.90
52895;DHT22;38759;53.396;6.722;2023-08-20T02:20:58;14.90;99.90
52895;DHT22;38759;53.396;6.722;2023-08-20T02:23:24;14.90;99.90
52895;DHT22;38759;53.396;6.722;2023-08-20T02:25:50;14.80;99.90
52895;DHT22;38759;53.396;6.722;2023-08-20T02:28:15;14.80;99.90
52895;DHT22;38759;53.396;6.722;2023-08-20T02:30:45;14.80;99.90
52895;DHT22;38759;53.396;6.722;2023-08-20T02:33:12;14.70;99.90
52895;DHT22;38759;53.396;6.722;2023-08-20T02:35:38;14.80;99.90
52895;DHT22;38759;53.396;6.722;2023-08-20T02:38:04;14.70;99.90
52895;DHT22;38759;53.396;6.722;2023-08-20T02:40:30;14.80;99.90
52895;DHT22;38759;53.396;6.722;2023-08-20T02:42:56;14.80;99.90
52895;DHT22;38759;53.396;6.722;2023-08-20T02:45:22;14.80;99.90
52895;DHT22;38759;53.396;6.722;2023-08-20T02:47:48;14.90;99.90
52895;DHT22;38759;53.396;6.722;2023-08-20T02:50:15;14.90;99.90
52895;DHT22;38759;53.396;6.722;2023-08-20T02:52:42;14.90;99.90
52895;DHT22;38759;53.396;6.722;2023-08-20T02:55:08;14.90;99.90
52895;DHT22;38759;53.396;6.722;2023-08-20T02:57:34;14.90;99.90
52895;DHT22;38759;53.396;6.722;2023-08-20T02:59:59;14.90;99.90
52895;DHT22;38759;53.396;6.722;2023-08-20T03:02:25;14.90;99.90
52895;DHT22;38759;53.396;6.722;2023-08-20T03:04:51;14.90;99.90
52895;DHT22;38759;53.396;6.722;2023-08-20T03:07:16;14.90;99.90
52895;DHT22;38759;53.396;6.722;2023-08-20T03:09:42;14.90;99.90
52895;DHT22;38759;53.396;6.722;2023-08-20T03:12:08;14.90;99.90
52895;DHT22;38759;53.396;6.722;2023-08-20T03:14:33;14.90;99.90
52895;DHT22;38759;53.396;6.722;2023-08-20T03:16:59;14.80;99.90
52895;DHT22;38759;53.396;6.722;2023-08-20T03:19:25;14.80;99.90
52895;DHT22;38759;53.396;6.722;2023-08-20T03:21:50;14.80;99.90
52895;DHT22;38759;53.396;6.722;2023-08-20T03:24:16;14.70;99.90
52895;DHT22;38759;53.396;6.722;2023-08-20T03:26:42;14.80;99.90
52895;DHT22;38759;53.396;6.722;2023-08-20T03:29:07;14.80;99.90
52895;DHT22;38759;53.396;6.722;2023-08-20T03:31:33;14.80;99.90
52895;DHT22;38759;53.396;6.722;2023-08-20T03:33:58;14.80;99.90
52895;DHT22;38759;53.396;6.722;2023-08-20T03:36:24;14.80;99.90
52895;DHT22;38759;53.396;6.722;2023-08-20T03:38:50;14.80;99.90
52895;DHT22;38759;53.396;6.722;2023-08-20T03:41:15;14.80;99.90
52895;DHT22;38759;53.396;6.722;2023-08-20T03:43:42;14.80;99.90
52895;DHT22;38759;53.396;6.722;2023-08-20T03:46:08;14.80;99.90
52895;DHT22;38759;53.396;6.722;2023-08-20T03:48:33;14.70;99.90
52895;DHT22;38759;53.396;6.722;2023-08-20T03:50:59;14.70;99.90
52895;DHT22;38759;53.396;6.722;2023-08-20T03:53:25;14.70;99.90
52895;DHT22;38759;53.396;6.722;2023-08-20T03:55:50;14.70;99.90
52895;DHT22;38759;53.396;6.722;2023-08-20T03:58:16;14.60;99.90
52895;DHT22;38759;53.396;6.722;2023-08-20T04:00:43;14.60;99.90
52895;DHT22;38759;53.396;6.722;2023-08-20T04:03:09;14.60;99.90
52895;DHT22;38759;53.396;6.722;2023-08-20T04:05:38;14.60;99.90
52895;DHT22;38759;53.396;6.722;2023-08-20T04:08:05;14.60;99.90
52895;DHT22;38759;53.396;6.722;2023-08-20T04:10:31;14.60;99.90
52895;DHT22;38759;53.396;6.722;2023-08-20T04:12:58;14.60;99.90
52895;DHT22;38759;53.396;6.722;2023-08-20T04:15:24;14.60;99.90
52895;DHT22;38759;53.396;6.722;2023-08-20T04:17:49;14.60;99.90
52895;DHT22;38759;53.396;6.722;2023-08-20T04:20:15;14.60;99.90
52895;DHT22;38759;53.396;6.722;2023-08-20T04:22:41;14.50;99.90
52895;DHT22;38759;53.396;6.722;2023-08-20T04:25:07;14.50;99.90
52895;DHT22;38759;53.396;6.722;2023-08-20T04:27:33;14.40;99.90
52895;DHT22;38759;53.396;6.722;2023-08-20T04:29:59;14.40;99.90
52895;DHT22;38759;53.396;6.722;2023-08-20T04:32:25;14.30;99.90
52895;DHT22;38759;53.396;6.722;2023-08-20T04:34:50;14.30;99.90
52895;DHT22;38759;53.396;6.722;2023-08-20T04:37:19;14.30;99.90
52895;DHT22;38759;53.396;6.722;2023-08-20T04:39:45;14.30;99.90
52895;DHT22;38759;53.396;6.722;2023-08-20T04:42:10;14.30;99.90
52895;DHT22;38759;53.396;6.722;2023-08-20T04:44:36;14.40;99.90
52895;DHT22;38759;53.396;6.722;2023-08-20T04:47:02;14.30;99.90
52895;DHT22;38759;53.396;6.722;2023-08-20T04:49:27;14.40;99.90
52895;DHT22;38759;53.396;6.722;2023-08-20T04:51:55;14.30;99.90
52895;DHT22;38759;53.396;6.722;2023-08-20T04:54:21;14.30;99.90
52895;DHT22;38759;53.396;6.722;2023-08-20T04:56:47;14.30;99.90
52895;DHT22;38759;53.396;6.722;2023-08-20T04:59:13;14.30;99.90
52895;DHT22;38759;53.396;6.722;2023-08-20T05:01:39;14.30;99.90
52895;DHT22;38759;53.396;6.722;2023-08-20T05:04:04;14.30;99.90
52895;DHT22;38759;53.396;6.722;2023-08-20T05:06:31;14.30;99.90
52895;DHT22;38759;53.396;6.722;2023-08-20T05:08:57;14.30;99.90
52895;DHT22;38759;53.396;6.722;2023-08-20T05:11:22;14.30;99.90
52895;DHT22;38759;53.396;6.722;2023-08-20T05:13:49;14.30;99.90
52895;DHT22;38759;53.396;6.722;2023-08-20T05:16:15;14.30;99.90
52895;DHT22;38759;53.396;6.722;2023-08-20T05:18:42;14.30;99.90
52895;DHT22;38759;53.396;6.722;2023-08-20T05:21:08;14.40;99.90
52895;DHT22;38759;53.396;6.722;2023-08-20T05:23:33;14.40;99.90
52895;DHT22;38759;53.396;6.722;2023-08-20T05:25:59;14.40;99.90
52895;DHT22;38759;53.396;6.722;2023-08-20T05:28:25;14.50;99.90
52895;DHT22;38759;53.396;6.722;2023-08-20T05:30:55;14.60;99.90
52895;DHT22;38759;53.396;6.722;2023-08-20T05:33:21;14.70;99.90
52895;DHT22;38759;53.396;6.722;2023-08-20T05:35:48;14.70;99.90
52895;DHT22;38759;53.396;6.722;2023-08-20T05:38:13;14.80;99.90
52895;DHT22;38759;53.396;6.722;2023-08-20T05:40:39;14.80;99.90
52895;DHT22;38759;53.396;6.722;2023-08-20T05:43:04;14.90;99.90
52895;DHT22;38759;53.396;6.722;2023-08-20T05:45:30;15.00;99.90
52895;DHT22;38759;53.396;6.722;2023-08-20T05:47:56;15.00;99.90
52895;DHT22;38759;53.396;6.722;2023-08-20T05:50:21;15.10;99.90
52895;DHT22;38759;53.396;6.722;2023-08-20T05:52:48;15.20;99.90
52895;DHT22;38759;53.396;6.722;2023-08-20T05:55:14;15.30;99.90
52895;DHT22;38759;53.396;6.722;2023-08-20T05:57:40;15.30;99.90
52895;DHT22;38759;53.396;6.722;2023-08-20T06:00:08;15.40;99.90
52895;DHT22;38759;53.396;6.722;2023-08-20T06:02:33;15.50;99.90
52895;DHT22;38759;53.396;6.722;2023-08-20T06:04:59;15.50;99.90
52895;DHT22;38759;53.396;6.722;2023-08-20T06:07:25;15.60;99.90
52895;DHT22;38759;53.396;6.722;2023-08-20T06:09:50;15.60;99.90
52895;DHT22;38759;53.396;6.722;2023-08-20T06:12:17;15.70;99.90
52895;DHT22;38759;53.396;6.722;2023-08-20T06:14:42;15.80;99.90
52895;DHT22;38759;53.396;6.722;2023-08-20T06:17:08;15.90;99.90
52895;DHT22;38759;53.396;6.722;2023-08-20T06:19:34;15.90;99.90
52895;DHT22;38759;53.396;6.722;2023-08-20T06:22:00;16.00;99.90
52895;DHT22;38759;53.396;6.722;2023-08-20T06:24:26;16.00;99.90
52895;DHT22;38759;53.396;6.722;2023-08-20T06:26:52;16.10;99.90
52895;DHT22;38759;53.396;6.722;2023-08-20T06:29:18;16.20;99.90
52895;DHT22;38759;53.396;6.722;2023-08-20T06:31:43;16.30;99.90
52895;DHT22;38759;53.396;6.722;2023-08-20T06:34:09;16.30;99.90
52895;DHT22;38759;53.396;6.722;2023-08-20T06:36:35;16.40;99.90
52895;DHT22;38759;53.396;6.722;2023-08-20T06:39:01;16.50;99.90
52895;DHT22;38759;53.396;6.722;2023-08-20T06:41:27;16.60;99.90
52895;DHT22;38759;53.396;6.722;2023-08-20T06:43:52;16.70;99.90
52895;DHT22;38759;53.396;6.722;2023-08-20T06:46:18;16.90;99.90
52895;DHT22;38759;53.396;6.722;2023-08-20T06:48:44;16.90;99.90
52895;DHT22;38759;53.396;6.722;2023-08-20T06:51:14;17.10;99.90
52895;DHT22;38759;53.396;6.722;2023-08-20T06:53:41;17.20;99.90
52895;DHT22;38759;53.396;6.722;2023-08-20T06:56:08;17.40;99.90
52895;DHT22;38759;53.396;6.722;2023-08-20T06:58:34;17.40;99.90
52895;DHT22;38759;53.396;6.722;2023-08-20T07:01:00;17.50;99.90
52895;DHT22;38759;53.396;6.722;2023-08-20T07:03:37;17.60;99.90
52895;DHT22;38759;53.396;6.722;2023-08-20T07:06:03;17.70;99.90
52895;DHT22;38759;53.396;6.722;2023-08-20T07:08:29;17.80;99.90
52895;DHT22;38759;53.396;6.722;2023-08-20T07:10:55;17.90;99.90
52895;DHT22;38759;53.396;6.722;2023-08-20T07:13:22;17.90;99.90
52895;DHT22;38759;53.396;6.722;2023-08-20T07:15:47;18.10;99.90
52895;DHT22;38759;53.396;6.722;2023-08-20T07:18:13;18.10;99.90
52895;DHT22;38759;53.396;6.722;2023-08-20T07:20:44;18.20;99.90
52895;DHT22;38759;53.396;6.722;2023-08-20T07:23:10;18.20;99.90
52895;DHT22;38759;53.396;6.722;2023-08-20T07:25:37;18.30;99.90
52895;DHT22;38759;53.396;6.722;2023-08-20T07:28:04;18.30;99.90
52895;DHT22;38759;53.396;6.722;2023-08-20T07:30:30;18.40;99.90
52895;DHT22;38759;53.396;6.722;2023-08-20T07:32:56;18.50;99.90
52895;DHT22;38759;53.396;6.722;2023-08-20T07:35:22;18.60;99.90
52895;DHT22;38759;53.396;6.722;2023-08-20T07:37:47;18.60;99.90
52895;DHT22;38759;53.396;6.722;2023-08-20T07:40:13;18.70;99.90
52895;DHT22;38759;53.396;6.722;2023-08-20T07:42:40;18.90;99.90
52895;DHT22;38759;53.396;6.722;2023-08-20T07:45:07;18.90;99.90
52895;DHT22;38759;53.396;6.722;2023-08-20T07:47:33;19.00;99.90
52895;DHT22;38759;53.396;6.722;2023-08-20T07:49:59;19.10;99.90
52895;DHT22;38759;53.396;6.722;2023-08-20T07:52:25;19.20;99.90
52895;DHT22;38759;53.396;6.722;2023-08-20T07:54:51;19.20;99.90
52895;DHT22;38759;53.396;6.722;2023-08-20T07:57:16;19.30;99.90
52895;DHT22;38759;53.396;6.722;2023-08-20T07:59:42;19.40;99.90
52895;DHT22;38759;53.396;6.722;2023-08-20T08:02:07;19.50;99.90
52895;DHT22;38759;53.396;6.722;2023-08-20T08:04:34;19.60;99.90
52895;DHT22;38759;53.396;6.722;2023-08-20T08:07:00;19.60;99.90
52895;DHT22;38759;53.396;6.722;2023-08-20T08:09:28;19.80;99.90
52895;DHT22;38759;53.396;6.722;2023-08-20T08:11:54;19.90;99.90
52895;DHT22;38759;53.396;6.722;2023-08-20T08:14:20;19.90;99.90
52895;DHT22;38759;53.396;6.722;2023-08-20T08:16:46;20.00;99.90
52895;DHT22;38759;53.396;6.722;2023-08-20T08:19:12;20.10;99.90
52895;DHT22;38759;53.396;6.722;2023-08-20T08:21:38;20.20;99.90
52895;DHT22;38759;53.396;6.722;2023-08-20T08:24:04;20.20;99.90
52895;DHT22;38759;53.396;6.722;2023-08-20T08:26:30;20.30;99.90
52895;DHT22;38759;53.396;6.722;2023-08-20T08:28:56;20.30;99.90
52895;DHT22;38759;53.396;6.722;2023-08-20T08:31:23;20.40;99.90
52895;DHT22;38759;53.396;6.722;2023-08-20T08:33:49;20.50;99.90
52895;DHT22;38759;53.396;6.722;2023-08-20T08:36:14;20.50;99.90
52895;DHT22;38759;53.396;6.722;2023-08-20T08:38:42;20.60;99.90
52895;DHT22;38759;53.396;6.722;2023-08-20T08:41:11;20.60;99.90
52895;DHT22;38759;53.396;6.722;2023-08-20T08:43:38;20.70;99.90
52895;DHT22;38759;53.396;6.722;2023-08-20T08:46:12;20.80;99.90
52895;DHT22;38759;53.396;6.722;2023-08-20T08:48:40;20.90;99.90
52895;DHT22;38759;53.396;6.722;2023-08-20T08:51:07;20.90;99.90
52895;DHT22;38759;53.396;6.722;2023-08-20T08:53:33;21.00;99.90
52895;DHT22;38759;53.396;6.722;2023-08-20T08:56:00;21.10;99.90
52895;DHT22;38759;53.396;6.722;2023-08-20T08:58:26;21.10;99.90
52895;DHT22;38759;53.396;6.722;2023-08-20T09:00:52;21.20;99.90
52895;DHT22;38759;53.396;6.722;2023-08-20T09:03:18;21.30;99.90
52895;DHT22;38759;53.396;6.722;2023-08-20T09:05:50;21.30;99.90
52895;DHT22;38759;53.396;6.722;2023-08-20T09:08:26;21.40;99.90
52895;DHT22;38759;53.396;6.722;2023-08-20T09:10:54;21.50;99.90
52895;DHT22;38759;53.396;6.722;2023-08-20T09:13:24;21.60;99.90
52895;DHT22;38759;53.396;6.722;2023-08-20T09:15:53;21.60;99.90
52895;DHT22;38759;53.396;6.722;2023-08-20T09:18:20;21.70;99.90
52895;DHT22;38759;53.396;6.722;2023-08-20T09:20:47;21.80;99.90
52895;DHT22;38759;53.396;6.722;2023-08-20T09:23:14;21.90;99.90
52895;DHT22;38759;53.396;6.722;2023-08-20T09:25:40;22.00;99.90
52895;DHT22;38759;53.396;6.722;2023-08-20T09:28:06;22.10;99.90
52895;DHT22;38759;53.396;6.722;2023-08-20T09:30:32;22.10;99.90
52895;DHT22;38759;53.396;6.722;2023-08-20T09:35:30;22.10;99.90
52895;DHT22;38759;53.396;6.722;2023-08-20T09:38:00;22.20;99.90
52895;DHT22;38759;53.396;6.722;2023-08-20T09:40:27;22.30;99.90
52895;DHT22;38759;53.396;6.722;2023-08-20T09:42:54;22.50;99.90
52895;DHT22;38759;53.396;6.722;2023-08-20T09:45:20;22.70;99.90
52895;DHT22;38759;53.396;6.722;2023-08-20T09:47:48;22.80;99.90
52895;DHT22;38759;53.396;6.722;2023-08-20T09:50:18;22.90;99.90
52895;DHT22;38759;53.396;6.722;2023-08-20T09:52:58;22.80;99.90
52895;DHT22;38759;53.396;6.722;2023-08-20T09:55:30;22.80;99.90
52895;DHT22;38759;53.396;6.722;2023-08-20T09:57:57;22.90;99.90
52895;DHT22;38759;53.396;6.722;2023-08-20T10:00:25;22.90;99.90
52895;DHT22;38759;53.396;6.722;2023-08-20T10:02:52;23.10;99.90
52895;DHT22;38759;53.396;6.722;2023-08-20T10:05:19;23.10;99.90
52895;DHT22;38759;53.396;6.722;2023-08-20T10:07:47;23.10;99.90
52895;DHT22;38759;53.396;6.722;2023-08-20T10:10:12;23.20;99.90
52895;DHT22;38759;53.396;6.722;2023-08-20T10:12:40;23.20;99.90
52895;DHT22;38759;53.396;6.722;2023-08-20T10:15:08;23.30;99.90
52895;DHT22;38759;53.396;6.722;2023-08-20T10:17:37;23.40;99.90
52895;DHT22;38759;53.396;6.722;2023-08-20T10:20:04;23.50;99.90
52895;DHT22;38759;53.396;6.722;2023-08-20T10:22:38;23.50;99.90
52895;DHT22;38759;53.396;6.722;2023-08-20T10:25:08;23.60;99.90
52895;DHT22;38759;53.396;6.722;2023-08-20T10:27:39;23.70;99.90
52895;DHT22;38759;53.396;6.722;2023-08-20T10:30:19;23.80;99.90
52895;DHT22;38759;53.396;6.722;2023-08-20T10:32:55;23.80;99.90
52895;DHT22;38759;53.396;6.722;2023-08-20T10:35:28;23.90;99.90
52895;DHT22;38759;53.396;6.722;2023-08-20T10:38:04;24.10;99.90
52895;DHT22;38759;53.396;6.722;2023-08-20T10:40:55;24.20;99.90
52895;DHT22;38759;53.396;6.722;2023-08-20T10:43:46;24.30;99.90
52895;DHT22;38759;53.396;6.722;2023-08-20T10:48:40;24.60;99.90
52895;DHT22;38759;53.396;6.722;2023-08-20T10:51:31;24.70;99.90
52895;DHT22;38759;53.396;6.722;2023-08-20T10:56:39;24.70;99.90
52895;DHT22;38759;53.396;6.722;2023-08-20T10:59:08;24.80;99.90
52895;DHT22;38759;53.396;6.722;2023-08-20T11:01:34;24.80;99.90
52895;DHT22;38759;53.396;6.722;2023-08-20T11:04:00;24.90;99.90
52895;DHT22;38759;53.396;6.722;2023-08-20T11:06:33;24.90;99.90
52895;DHT22;38759;53.396;6.722;2023-08-20T11:08:59;25.00;99.90
52895;DHT22;38759;53.396;6.722;2023-08-20T11:11:25;24.90;99.90
52895;DHT22;38759;53.396;6.722;2023-08-20T11:13:51;25.00;99.90
52895;DHT22;38759;53.396;6.722;2023-08-20T11:16:17;25.00;99.90
52895;DHT22;38759;53.396;6.722;2023-08-20T11:18:43;25.10;99.90
52895;DHT22;38759;53.396;6.722;2023-08-20T11:21:09;25.10;99.90
52895;DHT22;38759;53.396;6.722;2023-08-20T11:23:35;25.20;99.90
52895;DHT22;38759;53.396;6.722;2023-08-20T11:26:01;25.20;99.90
52895;DHT22;38759;53.396;6.722;2023-08-20T11:28:28;25.30;99.90
52895;DHT22;38759;53.396;6.722;2023-08-20T11:30:54;25.40;99.90
52895;DHT22;38759;53.396;6.722;2023-08-20T11:33:22;25.40;99.90
52895;DHT22;38759;53.396;6.722;2023-08-20T11:35:48;25.60;99.90
52895;DHT22;38759;53.396;6.722;2023-08-20T11:38:14;25.60;99.90
52895;DHT22;38759;53.396;6.722;2023-08-20T11:40:40;25.80;99.90
52895;DHT22;38759;53.396;6.722;2023-08-20T11:43:06;25.80;99.90
52895;DHT22;38759;53.396;6.722;2023-08-20T11:45:33;25.90;99.90
52895;DHT22;38759;53.396;6.722;2023-08-20T11:48:09;25.90;99.90
52895;DHT22;38759;53.396;6.722;2023-08-20T11:50:35;26.00;99.90
52895;DHT22;38759;53.396;6.722;2023-08-20T11:53:03;26.10;99.90
52895;DHT22;38759;53.396;6.722;2023-08-20T11:55:32;26.20;99.90
52895;DHT22;38759;53.396;6.722;2023-08-20T11:57:57;26.10;99.90
52895;DHT22;38759;53.396;6.722;2023-08-20T12:00:27;26.00;99.90
52895;DHT22;38759;53.396;6.722;2023-08-20T12:02:54;26.00;99.90
52895;DHT22;38759;53.396;6.722;2023-08-20T12:05:27;26.10;99.90
52895;DHT22;38759;53.396;6.722;2023-08-20T12:07:59;26.20;99.90
52895;DHT22;38759;53.396;6.722;2023-08-20T12:10:27;26.20;99.90
52895;DHT22;38759;53.396;6.722;2023-08-20T12:12:54;26.20;99.90
52895;DHT22;38759;53.396;6.722;2023-08-20T12:15:21;26.30;99.90
52895;DHT22;38759;53.396;6.722;2023-08-20T12:18:00;26.30;99.90
52895;DHT22;38759;53.396;6.722;2023-08-20T12:20:28;26.10;99.90
52895;DHT22;38759;53.396;6.722;2023-08-20T12:22:54;26.00;99.90
52895;DHT22;38759;53.396;6.722;2023-08-20T12:25:20;25.80;99.90
52895;DHT22;38759;53.396;6.722;2023-08-20T12:27:45;25.50;99.90
52895;DHT22;38759;53.396;6.722;2023-08-20T12:30:12;25.50;99.90
52895;DHT22;38759;53.396;6.722;2023-08-20T12:32:37;25.60;99.90
52895;DHT22;38759;53.396;6.722;2023-08-20T12:35:03;25.80;99.90
52895;DHT22;38759;53.396;6.722;2023-08-20T12:37:29;25.90;99.90
52895;DHT22;38759;53.396;6.722;2023-08-20T12:39:55;25.90;99.90
52895;DHT22;38759;53.396;6.722;2023-08-20T12:42:20;25.80;99.90
52895;DHT22;38759;53.396;6.722;2023-08-20T12:44:46;25.70;99.90
52895;DHT22;38759;53.396;6.722;2023-08-20T12:47:11;25.70;99.90
52895;DHT22;38759;53.396;6.722;2023-08-20T12:49:37;25.60;99.90
52895;DHT22;38759;53.396;6.722;2023-08-20T12:52:03;25.40;99.90
52895;DHT22;38759;53.396;6.722;2023-08-20T12:54:29;25.20;99.90
52895;DHT22;38759;53.396;6.722;2023-08-20T12:56:54;25.30;99.90
52895;DHT22;38759;53.396;6.722;2023-08-20T12:59:20;25.40;99.90
52895;DHT22;38759;53.396;6.722;2023-08-20T13:01:46;25.40;99.90
52895;DHT22;38759;53.396;6.722;2023-08-20T13:04:12;25.50;99.90
52895;DHT22;38759;53.396;6.722;2023-08-20T13:06:39;25.50;99.90
52895;DHT22;38759;53.396;6.722;2023-08-20T13:09:05;25.40;99.90
52895;DHT22;38759;53.396;6.722;2023-08-20T13:11:32;25.30;99.90
52895;DHT22;38759;53.396;6.722;2023-08-20T13:13:58;25.10;99.90
52895;DHT22;38759;53.396;6.722;2023-08-20T13:16:24;24.90;99.90
52895;DHT22;38759;53.396;6.722;2023-08-20T13:18:50;24.70;99.90
52895;DHT22;38759;53.396;6.722;2023-08-20T13:21:16;24.50;99.90
52895;DHT22;38759;53.396;6.722;2023-08-20T13:23:42;24.40;99.90
52895;DHT22;38759;53.396;6.722;2023-08-20T13:26:07;24.50;99.90
52895;DHT22;38759;53.396;6.722;2023-08-20T13:28:33;24.60;99.90
52895;DHT22;38759;53.396;6.722;2023-08-20T13:30:59;24.70;99.90
52895;DHT22;38759;53.396;6.722;2023-08-20T13:33:24;24.70;99.90
52895;DHT22;38759;53.396;6.722;2023-08-20T13:35:50;24.50;99.90
52895;DHT22;38759;53.396;6.722;2023-08-20T13:38:17;24.50;99.90
52895;DHT22;38759;53.396;6.722;2023-08-20T13:40:44;24.50;99.90
52895;DHT22;38759;53.396;6.722;2023-08-20T13:43:10;24.60;99.90
52895;DHT22;38759;53.396;6.722;2023-08-20T13:45:36;24.80;99.90
52895;DHT22;38759;53.396;6.722;2023-08-20T13:48:01;25.00;99.90
52895;DHT22;38759;53.396;6.722;2023-08-20T13:50:27;25.30;99.90
52895;DHT22;38759;53.396;6.722;2023-08-20T13:52:53;25.40;99.90
52895;DHT22;38759;53.396;6.722;2023-08-20T13:55:19;25.60;99.90
52895;DHT22;38759;53.396;6.722;2023-08-20T13:57:44;25.70;99.90
52895;DHT22;38759;53.396;6.722;2023-08-20T14:00:10;25.80;99.90
52895;DHT22;38759;53.396;6.722;2023-08-20T14:02:38;25.90;99.90
52895;DHT22;38759;53.396;6.722;2023-08-20T14:05:04;25.90;99.90
52895;DHT22;38759;53.396;6.722;2023-08-20T14:07:31;25.90;99.90
52895;DHT22;38759;53.396;6.722;2023-08-20T14:09:58;25.70;99.90
52895;DHT22;38759;53.396;6.722;2023-08-20T14:12:24;25.60;99.90
52895;DHT22;38759;53.396;6.722;2023-08-20T14:14:50;25.80;99.90
52895;DHT22;38759;53.396;6.722;2023-08-20T14:17:16;25.80;99.90
52895;DHT22;38759;53.396;6.722;2023-08-20T14:19:41;26.00;99.90
52895;DHT22;38759;53.396;6.722;2023-08-20T14:22:07;26.00;99.90
52895;DHT22;38759;53.396;6.722;2023-08-20T14:24:33;26.10;99.90
52895;DHT22;38759;53.396;6.722;2023-08-20T14:26:58;26.00;99.90
52895;DHT22;38759;53.396;6.722;2023-08-20T14:29:24;25.90;99.90
52895;DHT22;38759;53.396;6.722;2023-08-20T14:31:49;25.90;99.90
52895;DHT22;38759;53.396;6.722;2023-08-20T14:34:15;25.90;99.90
52895;DHT22;38759;53.396;6.722;2023-08-20T14:36:41;25.80;99.90
52895;DHT22;38759;53.396;6.722;2023-08-20T14:39:06;25.80;99.90
52895;DHT22;38759;53.396;6.722;2023-08-20T14:41:32;25.80;99.90
52895;DHT22;38759;53.396;6.722;2023-08-20T14:43:59;25.80;99.90
52895;DHT22;38759;53.396;6.722;2023-08-20T14:46:25;25.80;99.90
52895;DHT22;38759;53.396;6.722;2023-08-20T14:48:50;25.80;99.90
52895;DHT22;38759;53.396;6.722;2023-08-20T14:51:16;26.00;99.90
52895;DHT22;38759;53.396;6.722;2023-08-20T14:53:42;26.10;99.90
52895;DHT22;38759;53.396;6.722;2023-08-20T14:56:07;26.20;99.90
52895;DHT22;38759;53.396;6.722;2023-08-20T14:58:33;26.20;99.90
52895;DHT22;38759;53.396;6.722;2023-08-20T15:00:59;26.30;99.90
52895;DHT22;38759;53.396;6.722;2023-08-20T15:03:26;26.20;99.90
52895;DHT22;38759;53.396;6.722;2023-08-20T15:05:51;26.00;99.90
52895;DHT22;38759;53.396;6.722;2023-08-20T15:08:17;25.90;99.90
52895;DHT22;38759;53.396;6.722;2023-08-20T15:10:43;26.00;99.90
52895;DHT22;38759;53.396;6.722;2023-08-20T15:13:08;26.00;99.90
52895;DHT22;38759;53.396;6.722;2023-08-20T15:15:34;26.20;99.90
52895;DHT22;38759;53.396;6.722;2023-08-20T15:18:00;26.20;99.90
52895;DHT22;38759;53.396;6.722;2023-08-20T15:20:25;26.20;99.90
52895;DHT22;38759;53.396;6.722;2023-08-20T15:22:51;26.20;99.90
52895;DHT22;38759;53.396;6.722;2023-08-20T15:25:17;26.00;99.90
52895;DHT22;38759;53.396;6.722;2023-08-20T15:27:44;26.00;99.90
52895;DHT22;38759;53.396;6.722;2023-08-20T15:30:10;26.00;99.90
52895;DHT22;38759;53.396;6.722;2023-08-20T15:32:35;25.80;99.90
52895;DHT22;38759;53.396;6.722;2023-08-20T15:35:01;25.80;99.90
52895;DHT22;38759;53.396;6.722;2023-08-20T15:37:31;25.70;99.90
52895;DHT22;38759;53.396;6.722;2023-08-20T15:39:57;25.70;99.90
52895;DHT22;38759;53.396;6.722;2023-08-20T15:42:23;25.60;99.90
52895;DHT22;38759;53.396;6.722;2023-08-20T15:44:48;25.40;99.90